• Join FlightAware (Why Join?)
  • Login
  • US Flag 
07:19PM EST


 

Airport Tracker/Info


-or-


 

Live Flight TrackerFlight Track Log ✈ SKW181M ✈ 29-Apr-2013 ✈ KRKS - KGCC

Flight Track Log - Related Links

Times and Time Zones

All times are in EDT time to prevent confusion due to time zone crossing. See the SKW181M flight status page for this flight to view local times or setup timezone preferences in your user account.

Time Position Orientation Groundspeed Altitude Reporting Facility
EDT Latitude Longitude Course Direction KTS MPH feet Rate Location/Type
10:42PM 41.5958 -109.0339 28° Northeast 163 188 7,600  Level Salt Lake Center
10:43PM 41.6292 -108.9803 50° Northeast 193 222 9,300 1,620 Climbing Salt Lake Center
10:45PM 41.6681 -108.9114 53° Northeast 221 254 11,000 1,620 Climbing Salt Lake Center
10:46PM 41.8954 -108.8095 24° Northeast  Level FlightAware Approximate
10:46PM 41.7292 -108.8425 40° Northeast 247 284 12,600  Level Salt Lake Center
10:47PM 41.9649 -108.7678 24° Northeast  Level FlightAware Approximate
10:47PM 41.7894 -108.7889 34° Northeast 264 304 13,800  Level Salt Lake Center
10:48PM 42.0322 -108.7199 28° Northeast  Level FlightAware Approximate
10:48PM 41.8575 -108.7050 43° Northeast 292 336 15,100  Level Salt Lake Center
10:49PM 41.9172 -108.6322 42° Northeast 301 346 16,100 960 Climbing Salt Lake Center
10:50PM 41.9903 -108.5469 41° Northeast 309 356 17,100 900 Climbing Salt Lake Center
10:51PM 42.0522 -108.4731 42° Northeast 311 358 18,000 780 Climbing Salt Lake Center
10:52PM 42.1158 -108.3961 42° Northeast 317 365 18,700 720 Climbing Salt Lake Center
10:53PM 42.1875 -108.3042 44° Northeast 320 368 19,500 900 Climbing Salt Lake Center
10:54PM 42.2508 -108.2250 43° Northeast 322 371 20,600 720 Climbing Salt Lake Center
10:55PM 42.3261 -108.1358 41° Northeast 323 372 21,000 660 Climbing Salt Lake Center
10:56PM 42.3900 -108.0547 43° Northeast 328 377 22,000 780 Climbing Salt Lake Center
10:57PM 42.4547 -107.9806 40° Northeast 321 369 22,700 480 Climbing Salt Lake Center
10:58PM 42.5297 -107.8878 42° Northeast 326 375 23,000 120 Climbing Salt Lake Center
10:59PM 42.5986 -107.8042 42° Northeast 346 398 23,000  Level Salt Lake Center
11:00PM 42.6783 -107.7019 43° Northeast 353 406 23,000  Level Salt Lake Center
11:01PM 42.7461 -107.6167 43° Northeast 349 402 23,000  Level Salt Lake Center
11:02PM 42.8142 -107.5331 42° Northeast 344 396 23,000  Level Salt Lake Center
11:03PM 42.8922 -107.4331 43° Northeast 344 396 23,000  Level Salt Lake Center
11:04PM 42.9667 -107.3406 42° Northeast 341 392 23,000  Level Salt Lake Center
11:05PM 43.0331 -107.2578 42° Northeast 337 388 23,000  Level Salt Lake Center
11:06PM 43.0989 -107.1733 43° Northeast 339 390 23,000  Level Salt Lake Center
11:07PM 43.1758 -107.0764 43° Northeast 337 388 23,000  Level Salt Lake Center
11:08PM 43.2406 -106.9931 43° Northeast 334 384 23,000  Level Salt Lake Center
11:09PM 43.3158 -106.8992 42° Northeast 333 383 23,000  Level Salt Lake Center
11:10PM 43.3794 -106.8114 45° Northeast 337 388 23,000 -120 Level Salt Lake Center
11:11PM 43.4406 -106.6819 57° Northeast 360 414 22,800 -420 Descending Salt Lake Center
11:12PM 43.4944 -106.5658 57° Northeast 373 429 22,200 -780 Descending Salt Lake Center
11:13PM 43.5531 -106.4456 56° Northeast 388 447 21,300 -840 Descending Salt Lake Center
11:14PM 43.6206 -106.3017 57° Northeast 398 458 20,500 -1,080 Descending Salt Lake Center
11:15PM 43.6894 -106.1567 57° Northeast 401 461 19,100 -1,500 Descending Denver Center
11:16PM 43.7458 -106.0381 57° Northeast 397 457 17,300 -1,860 Descending Denver Center
11:17PM 43.8103 -105.9025 57° Northeast 389 448 15,400 -1,740 Descending Denver Center
11:18PM 43.8633 -105.7892 57° Northeast 380 437 13,800 -1,620 Descending Denver Center
11:19PM 43.9147 -105.6775 57° Northeast 371 427 12,200 -1,620 Descending Denver Center
11:20PM 43.9758 -105.5514 56° Northeast 362 417 10,500 -1,440 Descending Denver Center
11:21PM 44.0411 -105.4778 39° Northeast 345 397 9,300 -1,020 Descending Denver Center
11:22PM 44.1178 -105.4811 358° North 319 367 8,500 -840 Descending Denver Center
11:23PM 44.1878 -105.4947 352° North 291 335 7,600 -900 Descending Denver Center
11:25PM 44.2681 -105.5132 351° North  Level FlightAware Approximate